Abilene Regional Airport
KABI : now visible

Airfield :











YOU CAN JOIN US ON...

 
LOGIN :

Register | Disclaimer

   EN    FR    IT 

 









Legend :    VFR   Marginal VFR   IFR   Intensive IFR   Very Intensive IFR
Visi :
Ceiling :
>= 8 km
>= 3000ft
5 to 8 km
1000 to 3000 ft
1500m to 5 km
500 to 1000 ft
800 to 1500m
200 to 500 ft
< 800m
< 200 ft
Symbols :   Thunderstorms  Fog  Heavy snow  Heavy precipitations  Wind > 20 kt






- Airport Elevation : 1791 ft


KABI - Abilene Regional

CURRENT METAR :
  • 081952Z 21010KT 10SM CLR 26/06 A2982 RMK AO2 SLP077 T02610056

EXPIRED METARs :
  • 081852Z 23011KT 10SM CLR 22/06 A2987 RMK AO2 SLP096 T02220061
  • 081752Z 21015KT 10SM CLR 19/06 A2989 RMK AO2 SLP107 T01940061 10194 20111 58017

TAF KABI
Valid from the 08 at 18:00 until the 09 at 18:00 UTC


081720Z 0818/0918 22015G24KT P6SM BKN200
FM090700 23011KT P6SM BKN200
FM091600 28011KT P6SM OVC100



MET'MAP, your aeronautical weather chart ! - Copyright ORBIFLY December 2007 - Disclaimer

ORBIFLY MET'MAP TEAM :

Programming & Development : Alexandra Zaïnal
Concept & original design : Baudouin d'Aumeries
Assistance for programming : Marc-Olivier Méhu
Technical & hardware support : Manuel Goepfert

Contact : metmap@orbifly.com




SOURCES & CREDITS :

   NOAA       Earth
Advisory